createdAt,value
2023-08-01T00:04:12.115Z,99622.61
2023-08-01T00:09:17.491Z,99612.64
2023-08-01T00:14:25.328Z,99609.95
2023-08-01T00:19:31.092Z,99599.98
2023-08-01T00:24:38.425Z,99593.27
2023-08-01T00:29:44.123Z,99588.02
2023-08-01T00:34:51.063Z,99581.41
2023-08-01T00:39:56.380Z,99566.66
2023-08-01T00:45:01.926Z,99551.58
2023-08-01T00:50:08.693Z,99540.27
2023-08-01T00:55:14.180Z,99535.77
2023-08-01T01:00:19.907Z,99539.30
2023-08-01T01:05:28.437Z,99533.11
2023-08-01T01:10:33.919Z,99529.68
2023-08-01T01:15:39.427Z,99524.69
2023-08-01T01:20:44.799Z,99519.84
2023-08-01T01:25:52.419Z,99505.73
2023-08-01T01:30:58.874Z,99470.42
2023-08-01T01:36:05.195Z,99453.14
2023-08-01T01:41:12.460Z,99449.25
2023-08-01T01:46:17.912Z,99456.51
2023-08-01T01:51:23.989Z,99451.50
2023-08-01T01:56:29.452Z,99457.42
2023-08-01T02:01:34.795Z,99448.43
2023-08-01T02:06:40.539Z,99427.39
2023-08-01T02:11:46.076Z,99410.96
2023-08-01T02:16:51.460Z,99397.90
2023-08-01T02:21:57.015Z,99393.52
2023-08-01T02:27:02.320Z,99382.40
2023-08-01T02:32:09.090Z,99381.98
2023-08-01T02:37:14.596Z,99379.27
2023-08-01T02:42:19.985Z,99379.11
2023-08-01T02:47:25.388Z,99368.16
2023-08-01T02:52:31.373Z,99360.86
2023-08-01T02:57:36.791Z,99354.44
2023-08-01T03:02:42.304Z,99356.90
2023-08-01T03:07:47.924Z,99347.00
2023-08-01T03:12:53.295Z,99341.27
2023-08-01T03:17:58.694Z,99339.40
2023-08-01T03:23:04.428Z,99327.25
2023-08-01T03:28:10.598Z,99321.23
2023-08-01T03:33:16.036Z,99316.70
2023-08-01T03:38:21.448Z,99308.94
2023-08-01T03:43:26.848Z,99302.42
2023-08-01T03:48:32.331Z,99310.59
2023-08-01T03:53:37.904Z,99301.77
2023-08-01T03:58:43.260Z,99291.48
2023-08-01T04:03:49.444Z,99293.87
2023-08-01T04:08:57.653Z,99291.59
2023-08-01T04:14:03.058Z,99280.30
2023-08-01T04:19:08.458Z,99283.63
2023-08-01T04:24:13.972Z,99283.91
2023-08-01T04:29:19.434Z,99274.58
2023-08-01T04:34:25.300Z,99277.19
2023-08-01T04:39:30.653Z,99269.89
2023-08-01T04:44:36.031Z,99265.56
2023-08-01T04:49:41.396Z,99264.93
2023-08-01T04:54:46.910Z,99255.67
2023-08-01T04:59:52.303Z,99241.80
2023-08-01T05:04:57.676Z,99239.45
2023-08-01T05:10:03.231Z,99222.02
2023-08-01T05:15:10.220Z,99217.52
2023-08-01T05:20:16.543Z,99216.85
2023-08-01T05:25:22.142Z,99211.47
2023-08-01T05:30:27.811Z,99210.63
2023-08-01T05:35:33.292Z,99202.41
2023-08-01T05:40:38.692Z,99198.67
2023-08-01T05:45:44.065Z,99193.56
2023-08-01T05:50:49.504Z,99188.35
2023-08-01T05:55:54.922Z,99189.98
2023-08-01T06:01:00.306Z,99185.05
2023-08-01T06:06:05.731Z,99184.98
2023-08-01T06:11:11.354Z,99184.52
2023-08-01T06:16:16.743Z,99187.41
2023-08-01T06:21:22.361Z,99185.71
2023-08-01T06:26:28.248Z,99181.13
2023-08-01T06:31:33.678Z,99186.80
2023-08-01T06:36:39.552Z,99181.58
2023-08-01T06:41:45.140Z,99179.79
2023-08-01T06:46:50.640Z,99178.92
2023-08-01T06:51:56.085Z,99179.96
2023-08-01T06:57:01.821Z,99173.67
2023-08-01T07:02:09.782Z,99168.12
2023-08-01T07:07:15.265Z,99177.28
2023-08-01T07:12:20.666Z,99174.54
2023-08-01T07:17:26.070Z,99171.09
2023-08-01T07:22:31.406Z,99172.11
2023-08-01T07:27:38.881Z,99171.88
2023-08-01T07:32:44.497Z,99162.95
2023-08-01T07:37:49.877Z,99151.73
2023-08-01T07:42:55.347Z,99135.56
2023-08-01T07:48:00.840Z,99138.34
2023-08-01T07:53:06.384Z,99138.80
2023-08-01T07:58:11.827Z,99141.67
2023-08-01T08:03:17.763Z,99138.45
2023-08-01T08:08:23.481Z,99141.38
2023-08-01T08:13:29.016Z,99143.77
2023-08-01T08:18:34.412Z,99143.91
2023-08-01T08:23:40.348Z,99149.72
2023-08-01T08:28:45.774Z,99154.59
2023-08-01T08:33:51.121Z,99157.64
2023-08-01T08:38:56.532Z,99152.14
2023-08-01T08:44:02.635Z,99147.02
2023-08-01T08:49:08.703Z,99141.06
2023-08-01T08:54:14.754Z,99140.07
2023-08-01T08:59:21.363Z,99130.50
2023-08-01T09:04:26.707Z,99133.18
2023-08-01T09:09:32.514Z,99128.16
2023-08-01T09:14:38.003Z,99117.65
2023-08-01T09:19:43.411Z,99102.67
2023-08-01T09:24:54.492Z,99104.65
2023-08-01T09:30:10.739Z,99105.90
2023-08-01T09:35:16.360Z,99098.97
2023-08-01T09:40:22.967Z,99102.16
2023-08-01T09:45:28.338Z,99105.96
2023-08-01T09:50:34.090Z,99103.38
2023-08-01T09:55:41.146Z,99117.21
2023-08-01T10:00:46.594Z,99119.48
2023-08-01T10:05:54.845Z,99114.34
2023-08-01T10:11:01.424Z,99109.51
2023-08-01T10:16:08.899Z,99116.82
2023-08-01T10:21:18.298Z,99116.95
2023-08-01T10:26:23.974Z,99115.86
2023-08-01T10:31:29.719Z,99115.10
2023-08-01T10:36:35.587Z,99110.98
2023-08-01T10:41:41.373Z,99117.63
2023-08-01T10:46:51.452Z,99140.50
2023-08-01T10:51:58.006Z,99150.50
2023-08-01T10:57:04.477Z,99147.45
2023-08-01T11:02:09.853Z,99145.27
2023-08-01T11:07:15.422Z,99147.39
2023-08-01T11:12:20.819Z,99168.46
2023-08-01T11:17:26.286Z,99168.69
2023-08-01T11:22:32.095Z,99173.63
2023-08-01T11:27:37.838Z,99174.74
2023-08-01T11:32:43.305Z,99177.84
2023-08-01T11:37:50.968Z,99186.01
2023-08-01T11:42:59.409Z,99186.23
2023-08-01T11:48:05.864Z,99190.52
2023-08-01T11:53:20.356Z,99183.61
2023-08-01T11:58:32.591Z,99173.14
2023-08-01T12:03:47.128Z,99178.10
2023-08-01T12:08:54.888Z,99182.35
2023-08-01T12:14:05.434Z,99192.01
2023-08-01T12:19:11.735Z,99195.67
2023-08-01T12:24:17.209Z,99199.23
2023-08-01T12:29:22.575Z,99198.17
2023-08-01T12:34:27.963Z,99204.00
2023-08-01T12:39:33.443Z,99201.44
2023-08-01T12:44:38.957Z,99204.30
2023-08-01T12:49:44.728Z,99203.56
2023-08-01T12:54:50.244Z,99207.59
2023-08-01T12:59:55.603Z,99206.41
2023-08-01T13:05:01.014Z,99204.66
2023-08-01T13:10:07.568Z,99200.23
2023-08-01T13:15:17.764Z,99192.38
2023-08-01T13:20:23.819Z,99198.60
2023-08-01T13:25:29.567Z,99202.20
2023-08-01T13:30:34.937Z,99210.30
2023-08-01T13:35:40.281Z,99211.35
2023-08-01T13:40:45.677Z,99205.47
2023-08-01T13:45:53.563Z,99205.73
2023-08-01T13:51:01.264Z,99206.96
2023-08-01T13:56:06.715Z,99206.52
2023-08-01T14:01:12.138Z,99200.75
2023-08-01T14:06:17.570Z,99198.73
2023-08-01T14:11:23.022Z,99200.83
2023-08-01T14:16:28.693Z,99199.73
2023-08-01T14:21:36.742Z,99202.11
2023-08-01T14:26:42.909Z,99198.82
2023-08-01T14:31:48.527Z,99197.23
2023-08-01T14:36:53.940Z,99195.54
2023-08-01T14:42:04.937Z,99193.73
2023-08-01T14:47:10.683Z,99197.24
2023-08-01T14:52:16.155Z,99201.65
2023-08-01T14:57:21.624Z,99210.58
2023-08-01T15:02:27.392Z,99220.18
2023-08-01T15:07:32.925Z,99222.67
2023-08-01T15:12:38.555Z,99245.51
2023-08-01T15:17:44.052Z,99278.73
2023-08-01T15:22:49.444Z,99294.39
2023-08-01T15:27:54.794Z,99295.11
2023-08-01T15:33:00.162Z,99300.04
2023-08-01T15:38:06.201Z,99299.51
2023-08-01T15:43:12.309Z,99294.33
2023-08-01T15:48:17.657Z,99297.98
2023-08-01T15:53:23.529Z,99298.86
2023-08-01T15:58:32.302Z,99312.73
2023-08-01T16:03:39.378Z,99311.08
2023-08-01T16:08:44.995Z,99315.77
2023-08-01T16:13:50.396Z,99313.15
2023-08-01T16:18:55.755Z,99319.77
2023-08-01T16:24:02.364Z,99324.47
2023-08-01T16:29:07.988Z,99329.67
2023-08-01T16:34:13.377Z,99329.84
2023-08-01T16:39:18.870Z,99323.27
2023-08-01T16:44:24.239Z,99318.56
2023-08-01T16:49:29.618Z,99316.40
2023-08-01T16:54:35.268Z,99321.67
2023-08-01T16:59:41.078Z,99332.45
2023-08-01T17:04:46.731Z,99333.39
2023-08-01T17:09:52.089Z,99338.90
2023-08-01T17:14:57.535Z,99343.04
2023-08-01T17:20:04.826Z,99345.35
2023-08-01T17:25:10.979Z,99345.02
2023-08-01T17:30:16.391Z,99345.90
2023-08-01T17:35:21.876Z,99351.23
2023-08-01T17:40:27.671Z,99362.63
2023-08-01T17:45:32.997Z,99364.59
2023-08-01T17:50:38.467Z,99373.02
2023-08-01T17:55:43.839Z,99384.85
2023-08-01T18:00:49.593Z,99390.24
2023-08-01T18:06:05.270Z,99396.36
2023-08-01T18:11:14.140Z,99407.61
2023-08-01T18:16:23.397Z,99418.54
2023-08-01T18:21:28.781Z,99430.64
2023-08-01T18:26:35.736Z,99446.88
2023-08-01T18:31:41.282Z,99453.17
2023-08-01T18:36:46.637Z,99466.58
2023-08-01T18:41:54.874Z,99467.09
2023-08-01T18:47:00.258Z,99471.02
2023-08-01T18:52:06.890Z,99482.14
2023-08-01T18:57:12.267Z,99488.23
2023-08-01T19:02:17.621Z,99492.92
2023-08-01T19:07:22.978Z,99496.70
2023-08-01T19:12:29.301Z,99508.45
2023-08-01T19:17:34.654Z,99515.27
2023-08-01T19:22:40.290Z,99523.52
2023-08-01T19:27:45.635Z,99530.40
2023-08-01T19:32:51.040Z,99529.65
2023-08-01T19:37:56.448Z,99531.20
2023-08-01T19:43:01.948Z,99539.15
2023-08-01T19:48:09.971Z,99543.66
2023-08-01T19:53:15.365Z,99548.30
2023-08-01T19:58:21.001Z,99551.55
2023-08-01T20:03:29.326Z,99556.44
2023-08-01T20:08:35.308Z,99556.19
2023-08-01T20:13:40.734Z,99561.70
2023-08-01T20:18:46.078Z,99564.63
2023-08-01T20:23:51.461Z,99567.59
2023-08-01T20:28:56.789Z,99576.51
2023-08-01T20:34:03.112Z,99583.23
2023-08-01T20:39:09.202Z,99585.96
2023-08-01T20:44:14.634Z,99579.73
2023-08-01T20:49:19.982Z,99586.90
2023-08-01T20:54:25.406Z,99587.48
2023-08-01T20:59:31.669Z,99591.98
2023-08-01T21:04:37.162Z,99594.27
2023-08-01T21:09:42.545Z,99593.11
2023-08-01T21:14:51.933Z,99594.85
2023-08-01T21:19:57.296Z,99597.46
2023-08-01T21:25:02.742Z,99597.01
2023-08-01T21:30:10.035Z,99603.86
2023-08-01T21:35:15.430Z,99607.81
2023-08-01T21:40:20.900Z,99615.52
2023-08-01T21:45:26.500Z,99621.35
2023-08-01T21:50:31.946Z,99619.67
2023-08-01T21:55:37.369Z,99615.81
2023-08-01T22:00:43.631Z,99620.88
2023-08-01T22:05:57.338Z,99620.23
2023-08-01T22:11:02.834Z,99622.84
2023-08-01T22:16:08.246Z,99626.61
2023-08-01T22:21:13.662Z,99630.83
2023-08-01T22:26:19.056Z,99628.33
2023-08-01T22:31:24.477Z,99633.78
2023-08-01T22:36:29.964Z,99635.76
2023-08-01T22:41:35.456Z,99636.59
2023-08-01T22:46:41.521Z,99635.17
2023-08-01T22:51:47.205Z,99636.31
2023-08-01T22:56:55.160Z,99633.54
2023-08-01T23:02:00.532Z,99636.96
2023-08-01T23:07:06.481Z,99643.38
2023-08-01T23:12:11.955Z,99645.53
2023-08-01T23:17:17.838Z,99642.50
2023-08-01T23:22:23.195Z,99643.27
2023-08-01T23:27:28.726Z,99643.55
2023-08-01T23:32:34.283Z,99643.19
2023-08-01T23:37:39.700Z,99648.14
2023-08-01T23:42:45.727Z,99643.14
2023-08-01T23:47:51.181Z,99639.95
2023-08-01T23:52:56.595Z,99635.69
2023-08-01T23:58:02.062Z,99635.92
